QFA466 YMML-YSSY
Flight info
| Callsign | QFA466 |
|---|---|
| Flight time | 1h 9m |
| Altitude | 37000 |
| Route | ML H129 DOSEL Y59 RIVET |
| Aircraft | B738/M-SDE2E3FGHIRWXY/LB1 |
Departure
| Time | 2026-04-30 06:48 |
|---|---|
| Airport | Melbourne Airport (YMML) |
Arrival
| Time | 2026-04-30 07:57 |
|---|---|
| Airport | Sydney Kingsford Smith International Airport (YSSY) |
| Time | Latitude | Longitude | Altitude | Speed | Heading |
|---|---|---|---|---|---|
| 2026-04-30 05:57 | -37.66632 | 144.84895 | 401 ft | 0 kts | 168° |
| 2026-04-30 06:34 | -37.66628 | 144.84894 | 402 ft | 3 kts | 168° |
| 2026-04-30 06:34 | -37.66602 | 144.84887 | 403 ft | 4 kts | 169° |
| 2026-04-30 06:35 | -37.66575 | 144.84882 | 403 ft | 4 kts | 177° |
| 2026-04-30 06:35 | -37.66550 | 144.84884 | 402 ft | 4 kts | 216° |
| 2026-04-30 06:35 | -37.66542 | 144.84894 | 405 ft | 2 kts | 263° |
| 2026-04-30 06:35 | -37.66545 | 144.84864 | 405 ft | 4 kts | 261° |
| 2026-04-30 06:36 | -37.66543 | 144.84886 | 405 ft | 3 kts | 261° |
| 2026-04-30 06:36 | -37.66543 | 144.84888 | 405 ft | 2 kts | 261° |
| 2026-04-30 06:38 | -37.66547 | 144.84862 | 402 ft | 6 kts | 254° |
| 2026-04-30 06:39 | -37.66567 | 144.84820 | 404 ft | 6 kts | 225° |
| 2026-04-30 06:39 | -37.66618 | 144.84777 | 402 ft | 12 kts | 223° |
| 2026-04-30 06:39 | -37.66647 | 144.84665 | 400 ft | 15 kts | 263° |
| 2026-04-30 06:39 | -37.66659 | 144.84559 | 398 ft | 13 kts | 262° |
| 2026-04-30 06:40 | -37.66674 | 144.84429 | 397 ft | 17 kts | 262° |
| 2026-04-30 06:40 | -37.66690 | 144.84293 | 394 ft | 13 kts | 262° |
| 2026-04-30 06:40 | -37.66707 | 144.84217 | 389 ft | 9 kts | 237° |
| 2026-04-30 06:40 | -37.66784 | 144.84191 | 391 ft | 15 kts | 172° |
| 2026-04-30 06:41 | -37.66912 | 144.84215 | 387 ft | 21 kts | 171° |
| 2026-04-30 06:41 | -37.67051 | 144.84241 | 384 ft | 21 kts | 171° |
| 2026-04-30 06:41 | -37.67177 | 144.84265 | 381 ft | 18 kts | 171° |
| 2026-04-30 06:41 | -37.67304 | 144.84288 | 379 ft | 19 kts | 172° |
| 2026-04-30 06:42 | -37.67442 | 144.84314 | 376 ft | 21 kts | 171° |
| 2026-04-30 06:42 | -37.67582 | 144.84340 | 372 ft | 16 kts | 171° |
| 2026-04-30 06:42 | -37.67700 | 144.84362 | 368 ft | 19 kts | 171° |
| 2026-04-30 06:42 | -37.67835 | 144.84387 | 365 ft | 15 kts | 172° |
| 2026-04-30 06:43 | -37.67953 | 144.84409 | 359 ft | 19 kts | 172° |
| 2026-04-30 06:43 | -37.68092 | 144.84435 | 355 ft | 22 kts | 171° |
| 2026-04-30 06:43 | -37.68247 | 144.84464 | 351 ft | 13 kts | 172° |
| 2026-04-30 06:43 | -37.68273 | 144.84469 | 351 ft | 5 kts | 171° |
| 2026-04-30 06:44 | -37.68317 | 144.84473 | 348 ft | 8 kts | 182° |
| 2026-04-30 06:44 | -37.68377 | 144.84444 | 352 ft | 11 kts | 213° |
| 2026-04-30 06:44 | -37.68451 | 144.84382 | 352 ft | 14 kts | 214° |
| 2026-04-30 06:44 | -37.68519 | 144.84318 | 338 ft | 11 kts | 225° |
| 2026-04-30 06:45 | -37.68551 | 144.84245 | 338 ft | 4 kts | 259° |
| 2026-04-30 06:45 | -37.68551 | 144.84244 | 338 ft | 0 kts | 259° |
| 2026-04-30 06:46 | -37.68554 | 144.84221 | 339 ft | 6 kts | 260° |
| 2026-04-30 06:47 | -37.68563 | 144.84147 | 350 ft | 11 kts | 263° |
| 2026-04-30 06:47 | -37.68536 | 144.84093 | 351 ft | 8 kts | 341° |
| 2026-04-30 06:47 | -37.68477 | 144.84080 | 348 ft | 16 kts | 353° |
| 2026-04-30 06:47 | -37.68129 | 144.84016 | 355 ft | 84 kts | 352° |
| 2026-04-30 06:48 | -37.67348 | 144.83867 | 372 ft | 140 kts | 352° |
| 2026-04-30 06:48 | -37.66283 | 144.83651 | 674 ft | 162 kts | 355° |
| 2026-04-30 06:48 | -37.65130 | 144.83454 | 1290 ft | 172 kts | 353° |
| 2026-04-30 06:48 | -37.63944 | 144.83249 | 2106 ft | 169 kts | 354° |
| 2026-04-30 06:49 | -37.62754 | 144.83021 | 2737 ft | 185 kts | 352° |
| 2026-04-30 06:49 | -37.61388 | 144.82753 | 3005 ft | 208 kts | 352° |
| 2026-04-30 06:49 | -37.59912 | 144.82459 | 3447 ft | 225 kts | 351° |
| 2026-04-30 06:49 | -37.58308 | 144.82450 | 4027 ft | 239 kts | 12° |
| 2026-04-30 06:50 | -37.56758 | 144.83332 | 4724 ft | 251 kts | 27° |
| 2026-04-30 06:50 | -37.55271 | 144.84447 | 5534 ft | 252 kts | 26° |
| 2026-04-30 06:50 | -37.53718 | 144.85485 | 6383 ft | 253 kts | 24° |
| 2026-04-30 06:50 | -37.52145 | 144.86496 | 7169 ft | 256 kts | 22° |
| 2026-04-30 06:51 | -37.50524 | 144.87494 | 7845 ft | 262 kts | 22° |
| 2026-04-30 06:51 | -37.48863 | 144.88505 | 8560 ft | 267 kts | 22° |
| 2026-04-30 06:51 | -37.47187 | 144.89515 | 9342 ft | 269 kts | 22° |
| 2026-04-30 06:51 | -37.45456 | 144.90559 | 9859 ft | 281 kts | 22° |
| 2026-04-30 06:52 | -37.43681 | 144.91655 | 10503 ft | 287 kts | 23° |
| 2026-04-30 06:52 | -37.42052 | 144.93198 | 10940 ft | 308 kts | 45° |
| 2026-04-30 06:52 | -37.40745 | 144.95476 | 11105 ft | 334 kts | 54° |
| 2026-04-30 06:52 | -37.39507 | 144.98033 | 11506 ft | 346 kts | 56° |
| 2026-04-30 06:53 | -37.38242 | 145.00643 | 12119 ft | 351 kts | 54° |
| 2026-04-30 06:53 | -37.36929 | 145.03239 | 12847 ft | 354 kts | 54° |
| 2026-04-30 06:53 | -37.35560 | 145.05831 | 13521 ft | 358 kts | 53° |
| 2026-04-30 06:53 | -37.34625 | 145.07552 | 13987 ft | 361 kts | 52° |
| 2026-04-30 06:54 | -37.33181 | 145.10159 | 14652 ft | 365 kts | 52° |
| 2026-04-30 06:54 | -37.31716 | 145.12771 | 15364 ft | 367 kts | 51° |
| 2026-04-30 06:54 | -37.30228 | 145.15401 | 16060 ft | 370 kts | 51° |
| 2026-04-30 06:54 | -37.28725 | 145.18048 | 16747 ft | 374 kts | 51° |
| 2026-04-30 06:55 | -37.27209 | 145.20714 | 17414 ft | 378 kts | 50° |
| 2026-04-30 06:55 | -37.25151 | 145.24329 | 18312 ft | 382 kts | 50° |
| 2026-04-30 06:55 | -37.24126 | 145.26129 | 18742 ft | 384 kts | 50° |
| 2026-04-30 06:55 | -37.22571 | 145.28858 | 19333 ft | 386 kts | 50° |
| 2026-04-30 06:56 | -37.21001 | 145.31612 | 19911 ft | 389 kts | 50° |
| 2026-04-30 06:56 | -37.19420 | 145.34385 | 20493 ft | 392 kts | 50° |
| 2026-04-30 06:56 | -37.17827 | 145.37173 | 21068 ft | 395 kts | 50° |
| 2026-04-30 06:56 | -37.16221 | 145.39981 | 21617 ft | 398 kts | 50° |
| 2026-04-30 06:57 | -37.14600 | 145.42810 | 22156 ft | 401 kts | 50° |
| 2026-04-30 06:57 | -37.12967 | 145.45656 | 22670 ft | 404 kts | 50° |
| 2026-04-30 06:57 | -37.11320 | 145.48524 | 23210 ft | 407 kts | 50° |
| 2026-04-30 06:57 | -37.09664 | 145.51408 | 23728 ft | 409 kts | 50° |
| 2026-04-30 06:58 | -37.07992 | 145.54318 | 24137 ft | 413 kts | 50° |
| 2026-04-30 06:58 | -37.06302 | 145.57256 | 24521 ft | 417 kts | 50° |
| 2026-04-30 06:58 | -37.04601 | 145.60211 | 24916 ft | 420 kts | 50° |
| 2026-04-30 06:58 | -37.02889 | 145.63184 | 25330 ft | 422 kts | 50° |
| 2026-04-30 06:59 | -37.01165 | 145.66177 | 25722 ft | 425 kts | 50° |
| 2026-04-30 06:59 | -36.99430 | 145.69185 | 26131 ft | 428 kts | 50° |
| 2026-04-30 06:59 | -36.97684 | 145.72209 | 26500 ft | 431 kts | 50° |
| 2026-04-30 06:59 | -36.95924 | 145.75255 | 26861 ft | 434 kts | 50° |
| 2026-04-30 07:00 | -36.94149 | 145.78322 | 27226 ft | 436 kts | 50° |
| 2026-04-30 07:00 | -36.92368 | 145.81397 | 27640 ft | 437 kts | 50° |
| 2026-04-30 07:00 | -36.90585 | 145.84476 | 28061 ft | 438 kts | 50° |
| 2026-04-30 07:00 | -36.88791 | 145.87570 | 28402 ft | 441 kts | 50° |
| 2026-04-30 07:01 | -36.86982 | 145.90685 | 28741 ft | 444 kts | 50° |
| 2026-04-30 07:01 | -36.85168 | 145.93807 | 29078 ft | 446 kts | 50° |
| 2026-04-30 07:01 | -36.83339 | 145.96952 | 29432 ft | 448 kts | 50° |
| 2026-04-30 07:01 | -36.81500 | 146.00110 | 29763 ft | 450 kts | 50° |
| 2026-04-30 07:02 | -36.79652 | 146.03281 | 30078 ft | 453 kts | 50° |
| 2026-04-30 07:02 | -36.77822 | 146.06420 | 30390 ft | 455 kts | 50° |
| 2026-04-30 07:02 | -36.75958 | 146.09614 | 30685 ft | 456 kts | 50° |
| 2026-04-30 07:02 | -36.74058 | 146.12864 | 30930 ft | 458 kts | 50° |
| 2026-04-30 07:03 | -36.72201 | 146.16040 | 31184 ft | 460 kts | 50° |
| 2026-04-30 07:03 | -36.70316 | 146.19259 | 31512 ft | 460 kts | 50° |
| 2026-04-30 07:03 | -36.68435 | 146.22471 | 31879 ft | 459 kts | 50° |
| 2026-04-30 07:03 | -36.66554 | 146.25678 | 32181 ft | 459 kts | 50° |
| 2026-04-30 07:04 | -36.64666 | 146.28894 | 32458 ft | 460 kts | 50° |
| 2026-04-30 07:04 | -36.62778 | 146.32106 | 32756 ft | 460 kts | 51° |
| 2026-04-30 07:04 | -36.60885 | 146.35324 | 33131 ft | 458 kts | 51° |
| 2026-04-30 07:04 | -36.59010 | 146.38511 | 33517 ft | 456 kts | 51° |
| 2026-04-30 07:05 | -36.55251 | 146.44886 | 34056 ft | 458 kts | 51° |
| 2026-04-30 07:05 | -36.53362 | 146.48083 | 34345 ft | 458 kts | 51° |
| 2026-04-30 07:05 | -36.51481 | 146.51266 | 34624 ft | 457 kts | 51° |
| 2026-04-30 07:06 | -36.49604 | 146.54439 | 34919 ft | 456 kts | 51° |
| 2026-04-30 07:06 | -36.47720 | 146.57621 | 35199 ft | 455 kts | 51° |
| 2026-04-30 07:06 | -36.45850 | 146.60777 | 35480 ft | 454 kts | 51° |
| 2026-04-30 07:06 | -36.43975 | 146.63937 | 35707 ft | 455 kts | 51° |
| 2026-04-30 07:07 | -36.42097 | 146.67099 | 35914 ft | 455 kts | 50° |
| 2026-04-30 07:07 | -36.40218 | 146.70261 | 36154 ft | 455 kts | 50° |
| 2026-04-30 07:07 | -36.38340 | 146.73417 | 36412 ft | 454 kts | 50° |
| 2026-04-30 07:07 | -36.36463 | 146.76570 | 36649 ft | 454 kts | 50° |
| 2026-04-30 07:08 | -36.34586 | 146.79720 | 36857 ft | 454 kts | 50° |
| 2026-04-30 07:08 | -36.32709 | 146.82866 | 37091 ft | 454 kts | 50° |
| 2026-04-30 07:08 | -36.30829 | 146.86016 | 37313 ft | 454 kts | 50° |
| 2026-04-30 07:08 | -36.28941 | 146.89175 | 37333 ft | 458 kts | 50° |
| 2026-04-30 07:09 | -36.25137 | 146.95530 | 37346 ft | 459 kts | 50° |
| 2026-04-30 07:09 | -36.21352 | 147.01850 | 37335 ft | 455 kts | 50° |
| 2026-04-30 07:10 | -36.17611 | 147.08077 | 37338 ft | 452 kts | 50° |
| 2026-04-30 07:10 | -36.13862 | 147.14307 | 37333 ft | 451 kts | 51° |
| 2026-04-30 07:11 | -36.10077 | 147.20583 | 37361 ft | 459 kts | 51° |
| 2026-04-30 07:11 | -36.06239 | 147.26941 | 37348 ft | 462 kts | 51° |
| 2026-04-30 07:12 | -36.02388 | 147.33311 | 37349 ft | 463 kts | 51° |
| 2026-04-30 07:12 | -35.98523 | 147.39694 | 37352 ft | 464 kts | 51° |
| 2026-04-30 07:13 | -35.94659 | 147.46063 | 37350 ft | 463 kts | 51° |
| 2026-04-30 07:13 | -35.90793 | 147.52422 | 37358 ft | 463 kts | 51° |
| 2026-04-30 07:14 | -35.86935 | 147.58758 | 37361 ft | 462 kts | 51° |
| 2026-04-30 07:14 | -35.83076 | 147.65082 | 37355 ft | 461 kts | 51° |
| 2026-04-30 07:15 | -35.79214 | 147.71392 | 37360 ft | 460 kts | 51° |
| 2026-04-30 07:15 | -35.75385 | 147.77638 | 37364 ft | 460 kts | 51° |
| 2026-04-30 07:16 | -35.71533 | 147.83913 | 37364 ft | 459 kts | 51° |
| 2026-04-30 07:16 | -35.67680 | 147.90180 | 37365 ft | 459 kts | 51° |
| 2026-04-30 07:17 | -35.63826 | 147.96436 | 37371 ft | 459 kts | 51° |
| 2026-04-30 07:18 | -35.58035 | 148.05817 | 37377 ft | 460 kts | 51° |
| 2026-04-30 07:18 | -35.54168 | 148.12067 | 37373 ft | 460 kts | 51° |
| 2026-04-30 07:19 | -35.50295 | 148.18316 | 37380 ft | 460 kts | 51° |
| 2026-04-30 07:19 | -35.46414 | 148.24569 | 37384 ft | 460 kts | 51° |
| 2026-04-30 07:20 | -35.42531 | 148.30811 | 37391 ft | 461 kts | 51° |
| 2026-04-30 07:20 | -35.38633 | 148.37051 | 37390 ft | 461 kts | 51° |
| 2026-04-30 07:21 | -35.34740 | 148.43270 | 37398 ft | 461 kts | 51° |
| 2026-04-30 07:21 | -35.30832 | 148.49505 | 37401 ft | 462 kts | 51° |
| 2026-04-30 07:22 | -35.24961 | 148.58856 | 37394 ft | 462 kts | 51° |
| 2026-04-30 07:22 | -35.21042 | 148.65084 | 37383 ft | 462 kts | 51° |
| 2026-04-30 07:23 | -35.17122 | 148.71302 | 37391 ft | 462 kts | 51° |
| 2026-04-30 07:23 | -35.13195 | 148.77520 | 37390 ft | 462 kts | 51° |
| 2026-04-30 07:24 | -35.09258 | 148.83743 | 37004 ft | 468 kts | 51° |
| 2026-04-30 07:24 | -35.07271 | 148.86880 | 36523 ft | 465 kts | 51° |
| 2026-04-30 07:24 | -35.05293 | 148.89999 | 36061 ft | 462 kts | 52° |
| 2026-04-30 07:25 | -35.03341 | 148.93075 | 35643 ft | 457 kts | 52° |
| 2026-04-30 07:25 | -35.01401 | 148.96130 | 35219 ft | 453 kts | 52° |
| 2026-04-30 07:25 | -34.99478 | 148.99154 | 34803 ft | 449 kts | 52° |
| 2026-04-30 07:25 | -34.97576 | 149.02144 | 34389 ft | 445 kts | 52° |
| 2026-04-30 07:26 | -34.95682 | 149.05118 | 33925 ft | 441 kts | 52° |
| 2026-04-30 07:26 | -34.93806 | 149.08062 | 33480 ft | 437 kts | 52° |
| 2026-04-30 07:26 | -34.91974 | 149.10935 | 33071 ft | 433 kts | 52° |
| 2026-04-30 07:26 | -34.90135 | 149.13816 | 32664 ft | 429 kts | 52° |
| 2026-04-30 07:27 | -34.88308 | 149.16676 | 32255 ft | 425 kts | 52° |
| 2026-04-30 07:27 | -34.86500 | 149.19504 | 31856 ft | 422 kts | 52° |
| 2026-04-30 07:27 | -34.84707 | 149.22307 | 31462 ft | 418 kts | 52° |
| 2026-04-30 07:27 | -34.82925 | 149.25090 | 31070 ft | 415 kts | 52° |
| 2026-04-30 07:28 | -34.81156 | 149.27851 | 30698 ft | 412 kts | 52° |
| 2026-04-30 07:28 | -34.79398 | 149.30593 | 30283 ft | 409 kts | 52° |
| 2026-04-30 07:28 | -34.77653 | 149.33313 | 29840 ft | 406 kts | 52° |
| 2026-04-30 07:28 | -34.75919 | 149.36011 | 29432 ft | 402 kts | 52° |
| 2026-04-30 07:29 | -34.74218 | 149.38686 | 29055 ft | 398 kts | 54° |
| 2026-04-30 07:29 | -34.72776 | 149.41524 | 28751 ft | 392 kts | 62° |
| 2026-04-30 07:29 | -34.71515 | 149.44427 | 28485 ft | 386 kts | 63° |
| 2026-04-30 07:29 | -34.70293 | 149.47310 | 28159 ft | 381 kts | 63° |
| 2026-04-30 07:30 | -34.67871 | 149.52994 | 27397 ft | 376 kts | 62° |
| 2026-04-30 07:30 | -34.66660 | 149.55799 | 27027 ft | 374 kts | 62° |
| 2026-04-30 07:30 | -34.65450 | 149.58584 | 26645 ft | 372 kts | 62° |
| 2026-04-30 07:31 | -34.64245 | 149.61347 | 26282 ft | 370 kts | 62° |
| 2026-04-30 07:31 | -34.63041 | 149.64098 | 25909 ft | 368 kts | 62° |
| 2026-04-30 07:31 | -34.61840 | 149.66839 | 25536 ft | 366 kts | 62° |
| 2026-04-30 07:31 | -34.60648 | 149.69557 | 25166 ft | 365 kts | 62° |
| 2026-04-30 07:32 | -34.59457 | 149.72271 | 24809 ft | 363 kts | 62° |
| 2026-04-30 07:32 | -34.58268 | 149.74978 | 24428 ft | 363 kts | 62° |
| 2026-04-30 07:32 | -34.57084 | 149.77673 | 24065 ft | 361 kts | 62° |
| 2026-04-30 07:32 | -34.55903 | 149.80358 | 23624 ft | 361 kts | 62° |
| 2026-04-30 07:33 | -34.54724 | 149.83037 | 23227 ft | 358 kts | 62° |
| 2026-04-30 07:33 | -34.53554 | 149.85695 | 22848 ft | 356 kts | 62° |
| 2026-04-30 07:33 | -34.52390 | 149.88336 | 22477 ft | 353 kts | 62° |
| 2026-04-30 07:33 | -34.51234 | 149.90955 | 22109 ft | 351 kts | 62° |
| 2026-04-30 07:34 | -34.50086 | 149.93553 | 21755 ft | 349 kts | 62° |
| 2026-04-30 07:34 | -34.48950 | 149.96124 | 21482 ft | 344 kts | 62° |
| 2026-04-30 07:34 | -34.47825 | 149.98667 | 21126 ft | 342 kts | 62° |
| 2026-04-30 07:34 | -34.46717 | 150.01170 | 20789 ft | 340 kts | 62° |
| 2026-04-30 07:35 | -34.45601 | 150.03690 | 20436 ft | 338 kts | 62° |
| 2026-04-30 07:35 | -34.44492 | 150.06192 | 20093 ft | 337 kts | 62° |
| 2026-04-30 07:35 | -34.43372 | 150.08720 | 19742 ft | 335 kts | 62° |
| 2026-04-30 07:35 | -34.42270 | 150.11203 | 19396 ft | 334 kts | 62° |
| 2026-04-30 07:36 | -34.41185 | 150.13649 | 19055 ft | 333 kts | 62° |
| 2026-04-30 07:36 | -34.40088 | 150.16117 | 18698 ft | 333 kts | 62° |
| 2026-04-30 07:36 | -34.38993 | 150.18581 | 18296 ft | 332 kts | 62° |
| 2026-04-30 07:36 | -34.37902 | 150.21034 | 17924 ft | 330 kts | 62° |
| 2026-04-30 07:37 | -34.36816 | 150.23473 | 17564 ft | 328 kts | 62° |
| 2026-04-30 07:37 | -34.35736 | 150.25899 | 17213 ft | 326 kts | 61° |
| 2026-04-30 07:37 | -34.34664 | 150.28304 | 16872 ft | 324 kts | 61° |
| 2026-04-30 07:37 | -34.33595 | 150.30700 | 16532 ft | 322 kts | 61° |
| 2026-04-30 07:38 | -34.32533 | 150.33081 | 16201 ft | 321 kts | 61° |
| 2026-04-30 07:38 | -34.31477 | 150.35447 | 15863 ft | 319 kts | 61° |
| 2026-04-30 07:38 | -34.30424 | 150.37803 | 15526 ft | 318 kts | 61° |
| 2026-04-30 07:38 | -34.29372 | 150.40153 | 15187 ft | 316 kts | 60° |
| 2026-04-30 07:39 | -34.28329 | 150.42484 | 14850 ft | 315 kts | 60° |
| 2026-04-30 07:39 | -34.27288 | 150.44812 | 14521 ft | 314 kts | 60° |
| 2026-04-30 07:39 | -34.26253 | 150.47125 | 14180 ft | 313 kts | 60° |
| 2026-04-30 07:39 | -34.25218 | 150.49433 | 13811 ft | 311 kts | 60° |
| 2026-04-30 07:40 | -34.24203 | 150.51699 | 13464 ft | 310 kts | 60° |
| 2026-04-30 07:40 | -34.23182 | 150.53979 | 13118 ft | 307 kts | 60° |
| 2026-04-30 07:40 | -34.22168 | 150.56241 | 12780 ft | 305 kts | 60° |
| 2026-04-30 07:40 | -34.21159 | 150.58491 | 12459 ft | 303 kts | 61° |
| 2026-04-30 07:41 | -34.20158 | 150.60720 | 12128 ft | 301 kts | 61° |
| 2026-04-30 07:41 | -34.19161 | 150.62941 | 11807 ft | 299 kts | 61° |
| 2026-04-30 07:41 | -34.18170 | 150.65142 | 11481 ft | 298 kts | 61° |
| 2026-04-30 07:41 | -34.17186 | 150.67330 | 11161 ft | 296 kts | 61° |
| 2026-04-30 07:42 | -34.16206 | 150.69508 | 10840 ft | 294 kts | 62° |
| 2026-04-30 07:42 | -34.15549 | 150.70967 | 10722 ft | 290 kts | 62° |
| 2026-04-30 07:42 | -34.14603 | 150.73069 | 10583 ft | 282 kts | 62° |
| 2026-04-30 07:42 | -34.13662 | 150.75159 | 10171 ft | 284 kts | 62° |
| 2026-04-30 07:43 | -34.12722 | 150.77246 | 9874 ft | 280 kts | 62° |
| 2026-04-30 07:43 | -34.11813 | 150.79261 | 9541 ft | 280 kts | 62° |
| 2026-04-30 07:43 | -34.10886 | 150.81314 | 9229 ft | 278 kts | 62° |
| 2026-04-30 07:43 | -34.09963 | 150.83358 | 8937 ft | 276 kts | 62° |
| 2026-04-30 07:44 | -34.09056 | 150.85375 | 8690 ft | 272 kts | 62° |
| 2026-04-30 07:44 | -34.08158 | 150.87371 | 8474 ft | 269 kts | 62° |
| 2026-04-30 07:44 | -34.07266 | 150.89352 | 8247 ft | 268 kts | 62° |
| 2026-04-30 07:44 | -34.06379 | 150.91323 | 8027 ft | 266 kts | 62° |
| 2026-04-30 07:45 | -34.05499 | 150.93275 | 7798 ft | 266 kts | 61° |
| 2026-04-30 07:45 | -34.04620 | 150.95223 | 7576 ft | 264 kts | 62° |
| 2026-04-30 07:45 | -34.03748 | 150.97155 | 7353 ft | 261 kts | 61° |
| 2026-04-30 07:45 | -34.03133 | 150.99187 | 7108 ft | 260 kts | 85° |
| 2026-04-30 07:46 | -34.03386 | 151.01314 | 6927 ft | 258 kts | 110° |
| 2026-04-30 07:46 | -34.04314 | 151.03151 | 6699 ft | 259 kts | 129° |
| 2026-04-30 07:46 | -34.05544 | 151.04748 | 6482 ft | 261 kts | 132° |
| 2026-04-30 07:46 | -34.06811 | 151.06311 | 6253 ft | 260 kts | 133° |
| 2026-04-30 07:47 | -34.08211 | 151.07680 | 6007 ft | 262 kts | 153° |
| 2026-04-30 07:47 | -34.09962 | 151.08292 | 5819 ft | 262 kts | 166° |
| 2026-04-30 07:47 | -34.11749 | 151.08733 | 5565 ft | 262 kts | 166° |
| 2026-04-30 07:47 | -34.13540 | 151.09179 | 5370 ft | 263 kts | 166° |
| 2026-04-30 07:48 | -34.15334 | 151.09635 | 5153 ft | 265 kts | 166° |
| 2026-04-30 07:48 | -34.17141 | 151.10089 | 4949 ft | 264 kts | 166° |
| 2026-04-30 07:48 | -34.18923 | 151.10545 | 4709 ft | 261 kts | 166° |
| 2026-04-30 07:48 | -34.20685 | 151.11029 | 4488 ft | 257 kts | 164° |
| 2026-04-30 07:49 | -34.22263 | 151.11894 | 4364 ft | 244 kts | 136° |
| 2026-04-30 07:49 | -34.23207 | 151.13518 | 4310 ft | 236 kts | 105° |
| 2026-04-30 07:49 | -34.23364 | 151.15430 | 4225 ft | 225 kts | 85° |
| 2026-04-30 07:49 | -34.23261 | 151.17290 | 4081 ft | 218 kts | 83° |
| 2026-04-30 07:50 | -34.23134 | 151.19090 | 3972 ft | 214 kts | 83° |
| 2026-04-30 07:50 | -34.23007 | 151.20879 | 3854 ft | 214 kts | 83° |
| 2026-04-30 07:50 | -34.22878 | 151.22665 | 3771 ft | 212 kts | 83° |
| 2026-04-30 07:50 | -34.22702 | 151.24434 | 3677 ft | 211 kts | 72° |
| 2026-04-30 07:51 | -34.21927 | 151.25887 | 3635 ft | 207 kts | 37° |
| 2026-04-30 07:51 | -34.20614 | 151.26499 | 3565 ft | 211 kts | 3° |
| 2026-04-30 07:51 | -34.19192 | 151.26063 | 3488 ft | 219 kts | 329° |
| 2026-04-30 07:51 | -34.18184 | 151.24692 | 3362 ft | 222 kts | 296° |
| 2026-04-30 07:52 | -34.17602 | 151.23022 | 3245 ft | 209 kts | 309° |
| 2026-04-30 07:52 | -34.16512 | 151.22042 | 3260 ft | 196 kts | 347° |
| 2026-04-30 07:52 | -34.15195 | 151.22116 | 3249 ft | 189 kts | 25° |
| 2026-04-30 07:52 | -34.13992 | 151.22742 | 3047 ft | 189 kts | 11° |
| 2026-04-30 07:53 | -34.12734 | 151.22534 | 3023 ft | 183 kts | 343° |
| 2026-04-30 07:53 | -34.11508 | 151.22053 | 3021 ft | 185 kts | 348° |
| 2026-04-30 07:53 | -34.10250 | 151.21671 | 2809 ft | 186 kts | 350° |
| 2026-04-30 07:53 | -34.08995 | 151.21329 | 2555 ft | 183 kts | 351° |
| 2026-04-30 07:54 | -34.07784 | 151.21009 | 2305 ft | 172 kts | 351° |
| 2026-04-30 07:54 | -34.06653 | 151.20714 | 2079 ft | 161 kts | 352° |
| 2026-04-30 07:54 | -34.05580 | 151.20436 | 1882 ft | 157 kts | 352° |
| 2026-04-30 07:54 | -34.04512 | 151.20161 | 1689 ft | 158 kts | 353° |
| 2026-04-30 07:55 | -34.03454 | 151.19887 | 1495 ft | 150 kts | 352° |
| 2026-04-30 07:55 | -34.02423 | 151.19619 | 1247 ft | 153 kts | 353° |
| 2026-04-30 07:55 | -34.01393 | 151.19353 | 1053 ft | 150 kts | 352° |
| 2026-04-30 07:55 | -34.00380 | 151.19085 | 919 ft | 147 kts | 352° |
| 2026-04-30 07:56 | -33.99360 | 151.18807 | 712 ft | 152 kts | 354° |
| 2026-04-30 07:56 | -33.98332 | 151.18549 | 456 ft | 150 kts | 352° |
| 2026-04-30 07:56 | -33.97333 | 151.18293 | 243 ft | 145 kts | 352° |
| 2026-04-30 07:56 | -33.96362 | 151.18045 | 60 ft | 141 kts | 351° |
| 2026-04-30 07:57 | -33.95463 | 151.17817 | 21 ft | 119 kts | 347° |
| 2026-04-30 07:57 | -33.94773 | 151.17636 | 25 ft | 84 kts | 347° |
| 2026-04-30 07:57 | -33.94317 | 151.17517 | 26 ft | 50 kts | 348° |
| 2026-04-30 07:57 | -33.94094 | 151.17459 | 18 ft | 19 kts | 346° |
| 2026-04-30 07:58 | -33.93955 | 151.17428 | 17 ft | 20 kts | 7° |
| 2026-04-30 07:58 | -33.93900 | 151.17534 | 18 ft | 2 kts | 74° |
| 2026-04-30 07:59 | -33.93900 | 151.17536 | 18 ft | 1 kts | 74° |
| 2026-04-30 08:00 | -33.93844 | 151.17594 | 18 ft | 10 kts | 358° |
| 2026-04-30 08:00 | -33.93760 | 151.17575 | 17 ft | 14 kts | 347° |
| 2026-04-30 08:00 | -33.93652 | 151.17546 | 16 ft | 18 kts | 347° |
| 2026-04-30 08:00 | -33.93542 | 151.17517 | 17 ft | 14 kts | 347° |
| 2026-04-30 08:01 | -33.93464 | 151.17500 | 19 ft | 10 kts | 354° |
| 2026-04-30 08:01 | -33.93396 | 151.17505 | 20 ft | 11 kts | 355° |
| 2026-04-30 08:01 | -33.93313 | 151.17486 | 20 ft | 14 kts | 348° |
| 2026-04-30 08:01 | -33.93208 | 151.17459 | 21 ft | 17 kts | 349° |
| 2026-04-30 08:02 | -33.93022 | 151.17412 | 23 ft | 10 kts | 353° |
| 2026-04-30 08:02 | -33.92986 | 151.17471 | 28 ft | 10 kts | 96° |
| 2026-04-30 08:03 | -33.93016 | 151.17657 | 29 ft | 11 kts | 103° |
| 2026-04-30 08:03 | -33.93063 | 151.17807 | 29 ft | 3 kts | 100° |
| 2026-04-30 08:03 | -33.93076 | 151.17840 | 30 ft | 5 kts | 149° |
| 2026-04-30 08:04 | -33.93118 | 151.17854 | 30 ft | 7 kts | 163° |
| 2026-04-30 08:04 | -33.93153 | 151.17857 | 30 ft | 1 kts | 189° |